sensor_id;sensor_type;location;lat;lon;timestamp;P1;durP1;ratioP1;P2;durP2;ratioP2
82756;SDS011;72494;42.024;21.434;2023-08-30T00:00:55;15.85;;;9.07;;
82756;SDS011;72494;42.024;21.434;2023-08-30T00:03:21;19.90;;;10.98;;
82756;SDS011;72494;42.024;21.434;2023-08-30T00:05:47;16.58;;;10.45;;
82756;SDS011;72494;42.024;21.434;2023-08-30T00:08:14;16.58;;;11.10;;
82756;SDS011;72494;42.024;21.434;2023-08-30T00:10:43;17.60;;;10.27;;
82756;SDS011;72494;42.024;21.434;2023-08-30T00:13:10;18.17;;;9.65;;
82756;SDS011;72494;42.024;21.434;2023-08-30T00:15:36;16.23;;;9.93;;
82756;SDS011;72494;42.024;21.434;2023-08-30T00:18:02;16.02;;;9.05;;
82756;SDS011;72494;42.024;21.434;2023-08-30T00:20:29;15.77;;;9.45;;
82756;SDS011;72494;42.024;21.434;2023-08-30T00:22:55;17.48;;;10.10;;
82756;SDS011;72494;42.024;21.434;2023-08-30T00:25:21;18.00;;;9.23;;
82756;SDS011;72494;42.024;21.434;2023-08-30T00:27:47;14.60;;;9.00;;
82756;SDS011;72494;42.024;21.434;2023-08-30T00:30:13;17.05;;;9.75;;
82756;SDS011;72494;42.024;21.434;2023-08-30T00:32:39;17.73;;;9.45;;
82756;SDS011;72494;42.024;21.434;2023-08-30T00:35:05;15.95;;;9.57;;
82756;SDS011;72494;42.024;21.434;2023-08-30T00:37:32;13.30;;;8.35;;
82756;SDS011;72494;42.024;21.434;2023-08-30T00:39:58;18.05;;;9.63;;
82756;SDS011;72494;42.024;21.434;2023-08-30T00:42:25;14.55;;;9.07;;
82756;SDS011;72494;42.024;21.434;2023-08-30T00:44:52;13.05;;;8.80;;
82756;SDS011;72494;42.024;21.434;2023-08-30T00:47:18;15.88;;;8.77;;
82756;SDS011;72494;42.024;21.434;2023-08-30T00:49:44;15.13;;;9.30;;
82756;SDS011;72494;42.024;21.434;2023-08-30T00:52:10;12.60;;;9.60;;
82756;SDS011;72494;42.024;21.434;2023-08-30T00:54:37;14.05;;;8.95;;
82756;SDS011;72494;42.024;21.434;2023-08-30T00:57:04;16.10;;;9.02;;
82756;SDS011;72494;42.024;21.434;2023-08-30T00:59:31;14.35;;;9.43;;
82756;SDS011;72494;42.024;21.434;2023-08-30T01:01:58;13.35;;;9.55;;
82756;SDS011;72494;42.024;21.434;2023-08-30T01:04:26;18.83;;;10.45;;
82756;SDS011;72494;42.024;21.434;2023-08-30T01:06:52;16.42;;;10.05;;
82756;SDS011;72494;42.024;21.434;2023-08-30T01:09:18;15.73;;;10.30;;
82756;SDS011;72494;42.024;21.434;2023-08-30T01:17:16;14.43;;;9.93;;
82756;SDS011;72494;42.024;21.434;2023-08-30T01:19:51;15.80;;;9.18;;
82756;SDS011;72494;42.024;21.434;2023-08-30T01:27:34;17.30;;;9.73;;
82756;SDS011;72494;42.024;21.434;2023-08-30T01:30:05;14.23;;;8.10;;
82756;SDS011;72494;42.024;21.434;2023-08-30T01:32:32;15.63;;;8.05;;
82756;SDS011;72494;42.024;21.434;2023-08-30T01:34:59;14.52;;;9.00;;
82756;SDS011;72494;42.024;21.434;2023-08-30T01:37:26;18.67;;;10.00;;
82756;SDS011;72494;42.024;21.434;2023-08-30T01:39:52;14.82;;;8.93;;
82756;SDS011;72494;42.024;21.434;2023-08-30T01:42:20;18.02;;;8.68;;
82756;SDS011;72494;42.024;21.434;2023-08-30T01:44:48;15.80;;;9.25;;
82756;SDS011;72494;42.024;21.434;2023-08-30T01:47:14;16.95;;;8.73;;
82756;SDS011;72494;42.024;21.434;2023-08-30T01:49:41;15.43;;;9.05;;
82756;SDS011;72494;42.024;21.434;2023-08-30T01:52:08;14.25;;;7.90;;
82756;SDS011;72494;42.024;21.434;2023-08-30T01:54:34;15.07;;;8.25;;
82756;SDS011;72494;42.024;21.434;2023-08-30T01:57:01;13.93;;;7.93;;
82756;SDS011;72494;42.024;21.434;2023-08-30T01:59:28;15.80;;;8.63;;
82756;SDS011;72494;42.024;21.434;2023-08-30T02:01:55;14.55;;;7.60;;
82756;SDS011;72494;42.024;21.434;2023-08-30T02:04:21;13.65;;;7.88;;
82756;SDS011;72494;42.024;21.434;2023-08-30T02:06:55;14.93;;;7.30;;
82756;SDS011;72494;42.024;21.434;2023-08-30T02:09:27;12.65;;;6.60;;
82756;SDS011;72494;42.024;21.434;2023-08-30T02:11:54;12.23;;;7.22;;
82756;SDS011;72494;42.024;21.434;2023-08-30T02:14:21;12.02;;;6.45;;
82756;SDS011;72494;42.024;21.434;2023-08-30T02:16:48;13.90;;;6.75;;
82756;SDS011;72494;42.024;21.434;2023-08-30T02:19:14;15.57;;;7.45;;
82756;SDS011;72494;42.024;21.434;2023-08-30T02:21:42;14.02;;;7.75;;
82756;SDS011;72494;42.024;21.434;2023-08-30T02:24:09;12.43;;;7.45;;
82756;SDS011;72494;42.024;21.434;2023-08-30T02:26:35;11.00;;;7.25;;
82756;SDS011;72494;42.024;21.434;2023-08-30T02:29:01;14.23;;;7.57;;
82756;SDS011;72494;42.024;21.434;2023-08-30T02:31:27;12.35;;;7.57;;
82756;SDS011;72494;42.024;21.434;2023-08-30T02:33:54;11.68;;;7.38;;
82756;SDS011;72494;42.024;21.434;2023-08-30T02:36:20;17.27;;;6.38;;
82756;SDS011;72494;42.024;21.434;2023-08-30T02:38:46;10.52;;;7.53;;
82756;SDS011;72494;42.024;21.434;2023-08-30T02:41:12;13.13;;;7.43;;
82756;SDS011;72494;42.024;21.434;2023-08-30T02:43:38;14.32;;;7.72;;
82756;SDS011;72494;42.024;21.434;2023-08-30T02:46:04;12.55;;;8.38;;
82756;SDS011;72494;42.024;21.434;2023-08-30T02:48:31;15.13;;;8.05;;
82756;SDS011;72494;42.024;21.434;2023-08-30T02:50:58;13.20;;;7.03;;
82756;SDS011;72494;42.024;21.434;2023-08-30T02:53:24;13.63;;;7.57;;
82756;SDS011;72494;42.024;21.434;2023-08-30T02:55:50;11.85;;;6.90;;
82756;SDS011;72494;42.024;21.434;2023-08-30T02:58:16;11.48;;;6.65;;
82756;SDS011;72494;42.024;21.434;2023-08-30T03:00:42;13.68;;;8.57;;
82756;SDS011;72494;42.024;21.434;2023-08-30T03:03:09;16.33;;;8.50;;
82756;SDS011;72494;42.024;21.434;2023-08-30T03:05:35;21.40;;;9.30;;
82756;SDS011;72494;42.024;21.434;2023-08-30T03:08:01;16.38;;;9.05;;
82756;SDS011;72494;42.024;21.434;2023-08-30T03:10:27;15.20;;;7.82;;
82756;SDS011;72494;42.024;21.434;2023-08-30T03:12:53;15.68;;;7.75;;
82756;SDS011;72494;42.024;21.434;2023-08-30T03:15:19;15.15;;;7.97;;
82756;SDS011;72494;42.024;21.434;2023-08-30T03:17:45;15.40;;;7.53;;
82756;SDS011;72494;42.024;21.434;2023-08-30T03:20:11;15.32;;;7.55;;
82756;SDS011;72494;42.024;21.434;2023-08-30T03:22:37;13.63;;;7.43;;
82756;SDS011;72494;42.024;21.434;2023-08-30T03:25:04;12.63;;;6.07;;
82756;SDS011;72494;42.024;21.434;2023-08-30T03:27:32;20.30;;;6.30;;
82756;SDS011;72494;42.024;21.434;2023-08-30T03:29:58;12.85;;;6.55;;
82756;SDS011;72494;42.024;21.434;2023-08-30T03:32:24;12.30;;;5.35;;
82756;SDS011;72494;42.024;21.434;2023-08-30T03:34:50;11.10;;;4.53;;
82756;SDS011;72494;42.024;21.434;2023-08-30T03:37:16;12.88;;;5.60;;
82756;SDS011;72494;42.024;21.434;2023-08-30T03:39:43;10.55;;;5.65;;
82756;SDS011;72494;42.024;21.434;2023-08-30T03:42:09;10.90;;;5.93;;
82756;SDS011;72494;42.024;21.434;2023-08-30T03:44:35;14.65;;;6.20;;
82756;SDS011;72494;42.024;21.434;2023-08-30T03:47:01;13.18;;;7.03;;
82756;SDS011;72494;42.024;21.434;2023-08-30T03:49:27;16.85;;;7.05;;
82756;SDS011;72494;42.024;21.434;2023-08-30T03:51:54;15.98;;;6.72;;
82756;SDS011;72494;42.024;21.434;2023-08-30T03:54:20;18.02;;;7.43;;
82756;SDS011;72494;42.024;21.434;2023-08-30T03:56:47;19.10;;;6.70;;
82756;SDS011;72494;42.024;21.434;2023-08-30T03:59:13;18.02;;;7.60;;
82756;SDS011;72494;42.024;21.434;2023-08-30T04:01:39;14.55;;;6.22;;
82756;SDS011;72494;42.024;21.434;2023-08-30T04:04:05;15.25;;;6.93;;
82756;SDS011;72494;42.024;21.434;2023-08-30T04:06:31;16.67;;;6.15;;
82756;SDS011;72494;42.024;21.434;2023-08-30T04:08:57;15.20;;;6.68;;
82756;SDS011;72494;42.024;21.434;2023-08-30T04:11:23;14.50;;;6.25;;
82756;SDS011;72494;42.024;21.434;2023-08-30T04:13:49;16.40;;;6.50;;
82756;SDS011;72494;42.024;21.434;2023-08-30T04:16:17;15.13;;;6.18;;
82756;SDS011;72494;42.024;21.434;2023-08-30T04:18:43;17.27;;;6.93;;
82756;SDS011;72494;42.024;21.434;2023-08-30T04:21:09;12.77;;;7.05;;
82756;SDS011;72494;42.024;21.434;2023-08-30T04:23:35;14.25;;;5.88;;
82756;SDS011;72494;42.024;21.434;2023-08-30T04:26:01;12.45;;;5.43;;
82756;SDS011;72494;42.024;21.434;2023-08-30T04:28:27;11.70;;;5.90;;
82756;SDS011;72494;42.024;21.434;2023-08-30T04:30:54;14.95;;;6.43;;
82756;SDS011;72494;42.024;21.434;2023-08-30T04:33:20;22.08;;;8.02;;
82756;SDS011;72494;42.024;21.434;2023-08-30T04:35:50;13.30;;;6.70;;
82756;SDS011;72494;42.024;21.434;2023-08-30T04:38:16;10.93;;;5.10;;
82756;SDS011;72494;42.024;21.434;2023-08-30T04:40:42;11.05;;;5.47;;
82756;SDS011;72494;42.024;21.434;2023-08-30T04:43:08;14.02;;;6.30;;
82756;SDS011;72494;42.024;21.434;2023-08-30T04:45:35;14.65;;;6.03;;
82756;SDS011;72494;42.024;21.434;2023-08-30T04:48:01;11.98;;;5.75;;
82756;SDS011;72494;42.024;21.434;2023-08-30T04:50:27;12.50;;;5.93;;
82756;SDS011;72494;42.024;21.434;2023-08-30T04:52:53;13.70;;;6.00;;
82756;SDS011;72494;42.024;21.434;2023-08-30T04:55:19;11.88;;;5.40;;
82756;SDS011;72494;42.024;21.434;2023-08-30T04:57:45;13.48;;;5.65;;
82756;SDS011;72494;42.024;21.434;2023-08-30T05:00:13;10.23;;;5.38;;
82756;SDS011;72494;42.024;21.434;2023-08-30T05:02:39;11.70;;;5.78;;
82756;SDS011;72494;42.024;21.434;2023-08-30T05:05:08;11.95;;;5.03;;
82756;SDS011;72494;42.024;21.434;2023-08-30T05:07:34;13.27;;;5.13;;
82756;SDS011;72494;42.024;21.434;2023-08-30T05:10:01;11.80;;;5.82;;
82756;SDS011;72494;42.024;21.434;2023-08-30T05:12:28;10.98;;;5.32;;
82756;SDS011;72494;42.024;21.434;2023-08-30T05:14:54;12.43;;;5.65;;
82756;SDS011;72494;42.024;21.434;2023-08-30T05:17:20;16.20;;;6.10;;
82756;SDS011;72494;42.024;21.434;2023-08-30T05:19:46;14.10;;;5.80;;
82756;SDS011;72494;42.024;21.434;2023-08-30T05:22:12;16.45;;;4.78;;
82756;SDS011;72494;42.024;21.434;2023-08-30T05:24:38;13.07;;;6.32;;
82756;SDS011;72494;42.024;21.434;2023-08-30T05:27:04;12.85;;;5.80;;
82756;SDS011;72494;42.024;21.434;2023-08-30T05:29:30;12.18;;;5.68;;
82756;SDS011;72494;42.024;21.434;2023-08-30T05:31:56;11.90;;;5.80;;
82756;SDS011;72494;42.024;21.434;2023-08-30T05:34:22;11.98;;;5.55;;
82756;SDS011;72494;42.024;21.434;2023-08-30T05:36:50;13.65;;;5.85;;
82756;SDS011;72494;42.024;21.434;2023-08-30T05:39:16;14.98;;;5.88;;
82756;SDS011;72494;42.024;21.434;2023-08-30T05:41:42;13.20;;;6.50;;
82756;SDS011;72494;42.024;21.434;2023-08-30T05:44:09;12.90;;;6.18;;
82756;SDS011;72494;42.024;21.434;2023-08-30T05:46:35;13.55;;;6.05;;
82756;SDS011;72494;42.024;21.434;2023-08-30T05:49:01;13.07;;;6.82;;
82756;SDS011;72494;42.024;21.434;2023-08-30T05:51:28;12.70;;;6.80;;
82756;SDS011;72494;42.024;21.434;2023-08-30T05:53:57;13.20;;;7.13;;
82756;SDS011;72494;42.024;21.434;2023-08-30T05:56:23;12.43;;;6.95;;
82756;SDS011;72494;42.024;21.434;2023-08-30T05:58:49;12.02;;;6.57;;
82756;SDS011;72494;42.024;21.434;2023-08-30T06:01:17;10.88;;;6.22;;
82756;SDS011;72494;42.024;21.434;2023-08-30T06:06:11;13.02;;;8.48;;
82756;SDS011;72494;42.024;21.434;2023-08-30T06:08:38;12.73;;;6.40;;
82756;SDS011;72494;42.024;21.434;2023-08-30T06:11:04;12.43;;;5.82;;
82756;SDS011;72494;42.024;21.434;2023-08-30T06:13:30;11.90;;;6.45;;
82756;SDS011;72494;42.024;21.434;2023-08-30T06:15:56;19.17;;;9.07;;
82756;SDS011;72494;42.024;21.434;2023-08-30T06:18:22;10.55;;;6.35;;
82756;SDS011;72494;42.024;21.434;2023-08-30T06:20:49;10.90;;;6.43;;
82756;SDS011;72494;42.024;21.434;2023-08-30T06:23:18;11.18;;;6.70;;
82756;SDS011;72494;42.024;21.434;2023-08-30T06:25:52;11.60;;;6.63;;
82756;SDS011;72494;42.024;21.434;2023-08-30T06:28:27;14.77;;;6.80;;
82756;SDS011;72494;42.024;21.434;2023-08-30T06:30:56;14.00;;;7.70;;
82756;SDS011;72494;42.024;21.434;2023-08-30T06:33:24;15.07;;;6.97;;
82756;SDS011;72494;42.024;21.434;2023-08-30T06:35:53;14.13;;;6.72;;
82756;SDS011;72494;42.024;21.434;2023-08-30T06:38:23;12.05;;;7.38;;
82756;SDS011;72494;42.024;21.434;2023-08-30T06:40:54;13.32;;;7.13;;
82756;SDS011;72494;42.024;21.434;2023-08-30T06:43:23;15.38;;;6.47;;
82756;SDS011;72494;42.024;21.434;2023-08-30T06:45:57;18.42;;;7.80;;
82756;SDS011;72494;42.024;21.434;2023-08-30T06:48:30;12.70;;;6.45;;
82756;SDS011;72494;42.024;21.434;2023-08-30T06:50:59;12.35;;;6.45;;
82756;SDS011;72494;42.024;21.434;2023-08-30T06:53:29;12.80;;;5.95;;
82756;SDS011;72494;42.024;21.434;2023-08-30T06:55:59;9.55;;;5.60;;
82756;SDS011;72494;42.024;21.434;2023-08-30T06:58:25;13.77;;;5.90;;
82756;SDS011;72494;42.024;21.434;2023-08-30T07:00:53;13.07;;;6.05;;
82756;SDS011;72494;42.024;21.434;2023-08-30T07:03:20;12.30;;;5.90;;
82756;SDS011;72494;42.024;21.434;2023-08-30T07:05:46;10.90;;;5.32;;
82756;SDS011;72494;42.024;21.434;2023-08-30T07:08:13;10.82;;;5.18;;
82756;SDS011;72494;42.024;21.434;2023-08-30T07:10:39;11.63;;;5.18;;
82756;SDS011;72494;42.024;21.434;2023-08-30T07:13:06;13.13;;;5.45;;
82756;SDS011;72494;42.024;21.434;2023-08-30T07:15:53;16.42;;;5.75;;
82756;SDS011;72494;42.024;21.434;2023-08-30T07:18:19;12.88;;;5.18;;
82756;SDS011;72494;42.024;21.434;2023-08-30T07:20:45;10.77;;;4.90;;
82756;SDS011;72494;42.024;21.434;2023-08-30T07:23:17;13.02;;;4.80;;
82756;SDS011;72494;42.024;21.434;2023-08-30T07:25:46;14.05;;;5.85;;
82756;SDS011;72494;42.024;21.434;2023-08-30T07:28:13;15.18;;;7.72;;
82756;SDS011;72494;42.024;21.434;2023-08-30T07:30:39;15.90;;;8.35;;
82756;SDS011;72494;42.024;21.434;2023-08-30T07:33:05;15.07;;;8.30;;
82756;SDS011;72494;42.024;21.434;2023-08-30T07:35:32;16.17;;;8.80;;
82756;SDS011;72494;42.024;21.434;2023-08-30T07:38:01;14.00;;;7.82;;
82756;SDS011;72494;42.024;21.434;2023-08-30T07:40:36;16.88;;;8.88;;
82756;SDS011;72494;42.024;21.434;2023-08-30T07:43:10;14.80;;;7.30;;
82756;SDS011;72494;42.024;21.434;2023-08-30T07:45:36;17.38;;;8.35;;
82756;SDS011;72494;42.024;21.434;2023-08-30T07:48:04;14.65;;;7.90;;
82756;SDS011;72494;42.024;21.434;2023-08-30T07:50:39;14.23;;;8.18;;
82756;SDS011;72494;42.024;21.434;2023-08-30T07:53:08;13.95;;;8.40;;
82756;SDS011;72494;42.024;21.434;2023-08-30T07:55:35;14.07;;;8.20;;
82756;SDS011;72494;42.024;21.434;2023-08-30T07:58:03;14.13;;;6.90;;
82756;SDS011;72494;42.024;21.434;2023-08-30T08:00:35;12.98;;;7.80;;
82756;SDS011;72494;42.024;21.434;2023-08-30T08:03:01;12.52;;;7.63;;
82756;SDS011;72494;42.024;21.434;2023-08-30T08:05:30;15.75;;;7.55;;
82756;SDS011;72494;42.024;21.434;2023-08-30T08:07:59;15.57;;;8.07;;
82756;SDS011;72494;42.024;21.434;2023-08-30T08:10:35;11.68;;;6.43;;
82756;SDS011;72494;42.024;21.434;2023-08-30T08:13:10;14.48;;;6.85;;
82756;SDS011;72494;42.024;21.434;2023-08-30T08:15:38;16.83;;;5.72;;
82756;SDS011;72494;42.024;21.434;2023-08-30T08:18:09;10.10;;;4.22;;
82756;SDS011;72494;42.024;21.434;2023-08-30T08:25:48;8.73;;;3.58;;
82756;SDS011;72494;42.024;21.434;2023-08-30T08:28:21;8.85;;;3.92;;
82756;SDS011;72494;42.024;21.434;2023-08-30T08:30:47;8.57;;;3.15;;
82756;SDS011;72494;42.024;21.434;2023-08-30T08:33:16;9.63;;;4.00;;
82756;SDS011;72494;42.024;21.434;2023-08-30T08:36:02;9.32;;;4.05;;
82756;SDS011;72494;42.024;21.434;2023-08-30T08:38:34;9.65;;;3.70;;
82756;SDS011;72494;42.024;21.434;2023-08-30T08:41:01;9.55;;;3.05;;
82756;SDS011;72494;42.024;21.434;2023-08-30T08:43:34;11.68;;;3.20;;
82756;SDS011;72494;42.024;21.434;2023-08-30T08:49:25;11.38;;;3.80;;
82756;SDS011;72494;42.024;21.434;2023-08-30T08:51:56;9.98;;;4.30;;
82756;SDS011;72494;42.024;21.434;2023-08-30T08:54:23;9.77;;;4.75;;
82756;SDS011;72494;42.024;21.434;2023-08-30T08:59:26;11.05;;;5.60;;
82756;SDS011;72494;42.024;21.434;2023-08-30T09:25:38;10.35;;;4.18;;
82756;SDS011;72494;42.024;21.434;2023-08-30T09:28:04;13.43;;;4.22;;
82756;SDS011;72494;42.024;21.434;2023-08-30T09:30:35;11.70;;;4.10;;
82756;SDS011;72494;42.024;21.434;2023-08-30T09:33:31;11.73;;;3.85;;
82756;SDS011;72494;42.024;21.434;2023-08-30T09:36:20;10.43;;;3.80;;
82756;SDS011;72494;42.024;21.434;2023-08-30T09:39:03;11.65;;;3.90;;
82756;SDS011;72494;42.024;21.434;2023-08-30T09:41:43;8.25;;;3.72;;
82756;SDS011;72494;42.024;21.434;2023-08-30T10:00:06;7.25;;;2.42;;
82756;SDS011;72494;42.024;21.434;2023-08-30T10:02:43;6.43;;;2.13;;
82756;SDS011;72494;42.024;21.434;2023-08-30T10:05:11;9.65;;;3.60;;
82756;SDS011;72494;42.024;21.434;2023-08-30T10:07:50;7.85;;;2.45;;
82756;SDS011;72494;42.024;21.434;2023-08-30T10:10:19;7.03;;;2.22;;
82756;SDS011;72494;42.024;21.434;2023-08-30T10:12:48;9.10;;;2.22;;
82756;SDS011;72494;42.024;21.434;2023-08-30T10:15:29;6.63;;;2.72;;
82756;SDS011;72494;42.024;21.434;2023-08-30T10:18:03;9.18;;;2.53;;
82756;SDS011;72494;42.024;21.434;2023-08-30T10:20:34;6.03;;;2.42;;
82756;SDS011;72494;42.024;21.434;2023-08-30T10:23:03;10.55;;;2.50;;
82756;SDS011;72494;42.024;21.434;2023-08-30T10:27:57;5.50;;;2.50;;
82756;SDS011;72494;42.024;21.434;2023-08-30T10:32:59;5.55;;;2.15;;
82756;SDS011;72494;42.024;21.434;2023-08-30T10:35:29;7.20;;;2.50;;
82756;SDS011;72494;42.024;21.434;2023-08-30T10:37:59;5.38;;;2.22;;
82756;SDS011;72494;42.024;21.434;2023-08-30T10:40:32;5.88;;;2.42;;
82756;SDS011;72494;42.024;21.434;2023-08-30T10:45:34;6.22;;;2.08;;
82756;SDS011;72494;42.024;21.434;2023-08-30T10:48:06;7.65;;;2.20;;
82756;SDS011;72494;42.024;21.434;2023-08-30T10:50:32;5.88;;;1.98;;
82756;SDS011;72494;42.024;21.434;2023-08-30T10:53:01;5.72;;;1.83;;
82756;SDS011;72494;42.024;21.434;2023-08-30T10:55:37;7.20;;;2.03;;
82756;SDS011;72494;42.024;21.434;2023-08-30T10:58:03;7.53;;;2.25;;
82756;SDS011;72494;42.024;21.434;2023-08-30T11:00:33;5.93;;;2.00;;
82756;SDS011;72494;42.024;21.434;2023-08-30T11:03:01;6.63;;;2.30;;
82756;SDS011;72494;42.024;21.434;2023-08-30T11:05:28;5.18;;;1.98;;
82756;SDS011;72494;42.024;21.434;2023-08-30T11:08:10;7.15;;;1.73;;
82756;SDS011;72494;42.024;21.434;2023-08-30T11:10:37;6.53;;;1.77;;
82756;SDS011;72494;42.024;21.434;2023-08-30T11:13:07;6.20;;;2.10;;
82756;SDS011;72494;42.024;21.434;2023-08-30T11:15:33;6.97;;;2.20;;
82756;SDS011;72494;42.024;21.434;2023-08-30T11:18:04;5.38;;;1.80;;
82756;SDS011;72494;42.024;21.434;2023-08-30T11:20:31;7.38;;;2.35;;
82756;SDS011;72494;42.024;21.434;2023-08-30T11:22:57;6.25;;;1.95;;
82756;SDS011;72494;42.024;21.434;2023-08-30T11:25:26;5.45;;;2.05;;
82756;SDS011;72494;42.024;21.434;2023-08-30T11:28:01;6.85;;;2.10;;
82756;SDS011;72494;42.024;21.434;2023-08-30T11:30:29;6.35;;;2.00;;
82756;SDS011;72494;42.024;21.434;2023-08-30T11:32:57;5.57;;;2.00;;
82756;SDS011;72494;42.024;21.434;2023-08-30T11:35:23;7.43;;;2.30;;
82756;SDS011;72494;42.024;21.434;2023-08-30T11:40:26;6.65;;;1.92;;
82756;SDS011;72494;42.024;21.434;2023-08-30T11:42:53;4.38;;;1.50;;
82756;SDS011;72494;42.024;21.434;2023-08-30T11:45:23;4.28;;;1.33;;
82756;SDS011;72494;42.024;21.434;2023-08-30T11:50:26;5.50;;;1.50;;
82756;SDS011;72494;42.024;21.434;2023-08-30T11:52:52;5.65;;;1.60;;
82756;SDS011;72494;42.024;21.434;2023-08-30T11:55:23;4.07;;;1.33;;
82756;SDS011;72494;42.024;21.434;2023-08-30T11:57:50;6.45;;;2.10;;
82756;SDS011;72494;42.024;21.434;2023-08-30T12:00:32;4.88;;;1.60;;
82756;SDS011;72494;42.024;21.434;2023-08-30T12:03:01;4.13;;;1.42;;
82756;SDS011;72494;42.024;21.434;2023-08-30T12:05:49;4.32;;;1.45;;
82756;SDS011;72494;42.024;21.434;2023-08-30T12:08:29;3.45;;;1.17;;
82756;SDS011;72494;42.024;21.434;2023-08-30T12:13:34;5.57;;;1.85;;
82756;SDS011;72494;42.024;21.434;2023-08-30T12:16:02;4.25;;;1.30;;
82756;SDS011;72494;42.024;21.434;2023-08-30T12:18:29;3.88;;;1.17;;
82756;SDS011;72494;42.024;21.434;2023-08-30T12:20:56;5.35;;;1.30;;
82756;SDS011;72494;42.024;21.434;2023-08-30T12:23:25;3.35;;;1.10;;
82756;SDS011;72494;42.024;21.434;2023-08-30T12:26:02;3.92;;;1.38;;
82756;SDS011;72494;42.024;21.434;2023-08-30T12:28:32;5.78;;;1.23;;
82756;SDS011;72494;42.024;21.434;2023-08-30T12:31:02;4.93;;;1.50;;
82756;SDS011;72494;42.024;21.434;2023-08-30T12:33:37;4.57;;;1.10;;
82756;SDS011;72494;42.024;21.434;2023-08-30T12:41:16;4.22;;;1.13;;
82756;SDS011;72494;42.024;21.434;2023-08-30T12:46:19;3.97;;;1.40;;
82756;SDS011;72494;42.024;21.434;2023-08-30T12:48:49;4.45;;;1.50;;
82756;SDS011;72494;42.024;21.434;2023-08-30T12:54:11;4.82;;;1.30;;
82756;SDS011;72494;42.024;21.434;2023-08-30T12:56:42;3.13;;;1.15;;
82756;SDS011;72494;42.024;21.434;2023-08-30T12:59:20;4.47;;;1.30;;
82756;SDS011;72494;42.024;21.434;2023-08-30T13:05:08;3.60;;;1.10;;
82756;SDS011;72494;42.024;21.434;2023-08-30T13:18:47;3.60;;;1.20;;
82756;SDS011;72494;42.024;21.434;2023-08-30T13:26:28;3.45;;;1.13;;
82756;SDS011;72494;42.024;21.434;2023-08-30T13:51:34;4.18;;;0.95;;
82756;SDS011;72494;42.024;21.434;2023-08-30T13:54:01;3.58;;;0.90;;
82756;SDS011;72494;42.024;21.434;2023-08-30T13:59:07;2.70;;;1.00;;
82756;SDS011;72494;42.024;21.434;2023-08-30T14:01:47;3.35;;;1.10;;
82756;SDS011;72494;42.024;21.434;2023-08-30T14:04:18;3.80;;;0.90;;
82756;SDS011;72494;42.024;21.434;2023-08-30T14:07:01;3.15;;;1.00;;
82756;SDS011;72494;42.024;21.434;2023-08-30T14:09:29;3.08;;;1.00;;
82756;SDS011;72494;42.024;21.434;2023-08-30T14:11:57;3.80;;;1.10;;
82756;SDS011;72494;42.024;21.434;2023-08-30T14:14:23;3.40;;;1.00;;
82756;SDS011;72494;42.024;21.434;2023-08-30T14:16:51;3.05;;;1.02;;
82756;SDS011;72494;42.024;21.434;2023-08-30T14:19:17;4.55;;;1.20;;
82756;SDS011;72494;42.024;21.434;2023-08-30T14:21:43;3.35;;;1.00;;
82756;SDS011;72494;42.024;21.434;2023-08-30T14:24:10;3.92;;;1.35;;
82756;SDS011;72494;42.024;21.434;2023-08-30T14:26:43;4.28;;;1.10;;
82756;SDS011;72494;42.024;21.434;2023-08-30T14:29:09;4.22;;;1.50;;
82756;SDS011;72494;42.024;21.434;2023-08-30T14:31:35;3.53;;;1.10;;
82756;SDS011;72494;42.024;21.434;2023-08-30T14:34:03;4.40;;;1.20;;
82756;SDS011;72494;42.024;21.434;2023-08-30T14:36:31;5.80;;;1.23;;
82756;SDS011;72494;42.024;21.434;2023-08-30T14:39:21;5.20;;;1.40;;
82756;SDS011;72494;42.024;21.434;2023-08-30T14:41:49;3.25;;;1.05;;
82756;SDS011;72494;42.024;21.434;2023-08-30T14:44:18;4.10;;;1.20;;
82756;SDS011;72494;42.024;21.434;2023-08-30T14:54:32;4.90;;;1.50;;
82756;SDS011;72494;42.024;21.434;2023-08-30T14:56:59;5.30;;;1.40;;
82756;SDS011;72494;42.024;21.434;2023-08-30T15:17:25;7.00;;;2.33;;
82756;SDS011;72494;42.024;21.434;2023-08-30T15:22:24;8.80;;;2.70;;
82756;SDS011;72494;42.024;21.434;2023-08-30T15:24:52;6.88;;;1.65;;
82756;SDS011;72494;42.024;21.434;2023-08-30T15:27:20;4.05;;;1.42;;
82756;SDS011;72494;42.024;21.434;2023-08-30T15:29:47;5.60;;;2.80;;
82756;SDS011;72494;42.024;21.434;2023-08-30T15:32:18;5.68;;;2.47;;
82756;SDS011;72494;42.024;21.434;2023-08-30T15:34:44;6.35;;;3.67;;
82756;SDS011;72494;42.024;21.434;2023-08-30T15:39:50;6.13;;;2.30;;
82756;SDS011;72494;42.024;21.434;2023-08-30T15:42:41;5.63;;;2.65;;
82756;SDS011;72494;42.024;21.434;2023-08-30T15:45:12;3.55;;;1.42;;
82756;SDS011;72494;42.024;21.434;2023-08-30T16:00:25;7.00;;;2.50;;
82756;SDS011;72494;42.024;21.434;2023-08-30T16:02:54;6.47;;;2.38;;
82756;SDS011;72494;42.024;21.434;2023-08-30T16:08:04;3.10;;;1.00;;
82756;SDS011;72494;42.024;21.434;2023-08-30T16:15:42;3.85;;;1.02;;
82756;SDS011;72494;42.024;21.434;2023-08-30T16:18:11;3.25;;;1.10;;
82756;SDS011;72494;42.024;21.434;2023-08-30T16:20:37;3.92;;;1.10;;
82756;SDS011;72494;42.024;21.434;2023-08-30T16:23:04;3.33;;;1.02;;
82756;SDS011;72494;42.024;21.434;2023-08-30T16:25:30;3.65;;;1.10;;
82756;SDS011;72494;42.024;21.434;2023-08-30T16:27:58;4.15;;;1.25;;
82756;SDS011;72494;42.024;21.434;2023-08-30T16:30:28;4.60;;;1.05;;
82756;SDS011;72494;42.024;21.434;2023-08-30T16:32:56;3.10;;;1.00;;
82756;SDS011;72494;42.024;21.434;2023-08-30T16:35:26;5.07;;;1.40;;
82756;SDS011;72494;42.024;21.434;2023-08-30T16:37:55;5.35;;;1.50;;
82756;SDS011;72494;42.024;21.434;2023-08-30T16:40:22;5.93;;;1.70;;
82756;SDS011;72494;42.024;21.434;2023-08-30T16:42:50;4.70;;;1.38;;
82756;SDS011;72494;42.024;21.434;2023-08-30T16:45:19;4.40;;;1.33;;
82756;SDS011;72494;42.024;21.434;2023-08-30T16:47:53;4.00;;;1.48;;
82756;SDS011;72494;42.024;21.434;2023-08-30T16:50:21;4.28;;;1.42;;
82756;SDS011;72494;42.024;21.434;2023-08-30T16:52:48;4.35;;;1.20;;
82756;SDS011;72494;42.024;21.434;2023-08-30T16:57:56;4.05;;;1.38;;
82756;SDS011;72494;42.024;21.434;2023-08-30T17:00:32;4.72;;;1.73;;
82756;SDS011;72494;42.024;21.434;2023-08-30T17:02:58;4.45;;;1.65;;
82756;SDS011;72494;42.024;21.434;2023-08-30T17:10:41;5.10;;;1.50;;
82756;SDS011;72494;42.024;21.434;2023-08-30T17:13:07;6.80;;;1.50;;
82756;SDS011;72494;42.024;21.434;2023-08-30T17:15:34;4.82;;;1.60;;
82756;SDS011;72494;42.024;21.434;2023-08-30T17:20:36;4.63;;;1.73;;
82756;SDS011;72494;42.024;21.434;2023-08-30T17:25:39;3.97;;;1.50;;
82756;SDS011;72494;42.024;21.434;2023-08-30T17:28:16;5.65;;;1.75;;
82756;SDS011;72494;42.024;21.434;2023-08-30T17:30:43;4.30;;;1.65;;
82756;SDS011;72494;42.024;21.434;2023-08-30T17:33:09;4.40;;;1.67;;
82756;SDS011;72494;42.024;21.434;2023-08-30T17:35:40;4.50;;;1.60;;
82756;SDS011;72494;42.024;21.434;2023-08-30T17:38:08;4.60;;;1.63;;
82756;SDS011;72494;42.024;21.434;2023-08-30T17:40:37;5.43;;;1.73;;
82756;SDS011;72494;42.024;21.434;2023-08-30T17:43:10;7.30;;;1.70;;
82756;SDS011;72494;42.024;21.434;2023-08-30T17:45:37;3.75;;;1.60;;
82756;SDS011;72494;42.024;21.434;2023-08-30T17:48:07;4.07;;;1.63;;
82756;SDS011;72494;42.024;21.434;2023-08-30T17:50:35;5.15;;;1.58;;
82756;SDS011;72494;42.024;21.434;2023-08-30T17:53:05;4.57;;;1.58;;